Time;durP1;ratioP1;P1;durP2;ratioP2;P2;SDS_P1;SDS_P2;PMS_P1;PMS_P2;Temp;Humidity;BMP_temperature;BMP_pressure;BME280_temperature;BME280_humidity;BME280_pressure;Samples;Min_cycle;Max_cycle;Signal;HPM_P1;HPM_P2
2022/05/21 00:01:03;;;;;;;5.57;4.12;;;;;;;18.85;65.78;99829.62;4445459;32;34011;-58
2022/05/21 00:03:31;;;;;;;10.15;4.60;;;;;;;17.96;69.21;99824.88;4449176;32;34332;-58
2022/05/21 00:05:58;;;;;;;6.65;4.32;;;;;;;17.94;69.55;99818.75;4446355;32;34194;-58
2022/05/21 00:08:31;;;;;;;7.60;4.28;;;;;;;17.65;70.85;99821.75;4444185;32;33895;-58
2022/05/21 00:10:58;;;;;;;8.48;4.40;;;;;;;17.51;71.65;99828.50;4448590;32;34638;-58
2022/05/21 00:13:27;;;;;;;8.85;5.20;;;;;;;17.37;72.21;99820.41;4444056;32;33795;-58
2022/05/21 00:15:55;;;;;;;7.45;4.47;;;;;;;17.40;72.11;99825.69;4449455;32;32465;-58
2022/05/21 00:18:23;;;;;;;7.40;4.70;;;;;;;17.52;71.73;99819.78;4445469;32;34674;-58
2022/05/21 00:20:50;;;;;;;5.93;4.65;;;;;;;17.49;72.03;99820.63;4443595;32;34574;-58
2022/05/21 00:23:26;;;;;;;8.10;4.82;;;;;;;17.96;69.98;99806.53;4442443;32;34129;-58
2022/05/21 00:26:01;;;;;;;10.70;4.95;;;;;;;18.30;68.71;99804.41;4444335;32;33485;-58
2022/05/21 00:28:29;;;;;;;6.72;4.65;;;;;;;18.62;67.30;99810.06;4445363;32;34389;-58
2022/05/21 00:30:57;;;;;;;7.72;5.07;;;;;;;18.03;69.66;99803.16;4450668;32;33947;-58
2022/05/21 00:33:25;;;;;;;8.52;5.60;;;;;;;18.12;69.14;99803.31;4447362;32;34000;-58
2022/05/21 00:35:53;;;;;;;8.10;5.15;;;;;;;18.00;69.77;99797.84;4441667;32;34443;-58
2022/05/21 00:38:20;;;;;;;7.95;5.00;;;;;;;17.90;70.32;99806.47;4445736;32;33732;-58
2022/05/21 00:40:49;;;;;;;9.80;4.90;;;;;;;17.96;69.92;99790.81;4440939;32;34752;-58
2022/05/21 00:43:41;;;;;;;9.45;4.75;;;;;;;17.75;71.15;99788.72;4442667;32;34195;-58
2022/05/21 00:46:49;;;;;;;8.50;4.78;;;;;;;18.18;69.67;99781.53;4446450;32;33407;-58
2022/05/21 00:49:24;;;;;;;6.78;4.62;;;;;;;18.11;70.14;99769.19;4446678;32;33763;-58
2022/05/21 00:52:17;;;;;;;7.40;4.75;;;;;;;17.98;69.96;99776.00;4437213;32;34089;-58
2022/05/21 00:54:47;;;;;;;8.88;5.00;;;;;;;18.42;68.78;99788.84;4452956;32;34171;-58
2022/05/21 00:57:30;;;;;;;9.05;4.75;;;;;;;18.30;68.64;99792.19;4445967;32;33419;-58
2022/05/21 01:00:10;;;;;;;8.63;5.25;;;;;;;18.60;67.71;99796.94;4441769;32;33937;-58
2022/05/21 01:02:40;;;;;;;7.82;5.15;;;;;;;18.34;68.82;99798.34;4441221;32;33956;-58
2022/05/21 01:05:12;;;;;;;11.43;5.45;;;;;;;18.38;68.51;99810.63;4445707;32;34664;-58
2022/05/21 01:07:42;;;;;;;9.60;4.90;;;;;;;17.55;71.82;99806.75;4451499;32;33620;-58
2022/05/21 01:10:12;;;;;;;9.35;5.43;;;;;;;17.36;72.96;99798.56;4448436;32;34559;-58
2022/05/21 01:12:45;;;;;;;8.98;5.32;;;;;;;17.23;73.86;99796.59;4451314;32;33915;-58
2022/05/21 01:15:15;;;;;;;7.53;4.80;;;;;;;17.23;73.58;99796.59;4449526;32;34863;-58
2022/05/21 01:17:42;;;;;;;8.45;4.87;;;;;;;17.16;73.91;99805.19;4444945;32;33180;-58
2022/05/21 01:20:13;;;;;;;7.53;5.03;;;;;;;17.10;74.18;99812.06;4444559;32;34508;-58
2022/05/21 01:22:43;;;;;;;8.10;5.47;;;;;;;17.13;74.15;99811.25;4444707;32;33972;-58
2022/05/21 01:25:14;;;;;;;9.45;5.35;;;;;;;16.86;75.54;99809.00;4441077;32;34798;-58
2022/05/21 01:27:43;;;;;;;7.85;5.07;;;;;;;16.83;76.01;99814.19;4440941;32;33669;-58
2022/05/21 01:30:14;;;;;;;7.47;4.97;;;;;;;17.14;74.60;99802.56;4448028;32;33604;-58
2022/05/21 01:32:46;;;;;;;8.05;5.15;;;;;;;16.89;75.68;99807.31;4445916;32;34831;-58
2022/05/21 01:35:18;;;;;;;7.82;5.57;;;;;;;17.19;74.03;99806.16;4445391;32;33914;-58
2022/05/21 01:37:47;;;;;;;8.48;5.80;;;;;;;17.05;74.99;99792.78;4448842;32;34262;-58
2022/05/21 01:40:17;;;;;;;9.48;5.50;;;;;;;17.60;72.53;99784.12;4448871;32;33904;-58
2022/05/21 01:44:37;;;;;;;7.55;5.32;;;;;;;17.68;72.02;99791.25;4450092;32;33905;-58
2022/05/21 01:45:32;;;;;;;9.13;5.85;;;;;;;17.30;73.75;99798.47;4445270;32;34192;-58
2022/05/21 01:48:02;;;;;;;8.48;5.85;;;;;;;17.22;74.41;99800.94;4446677;32;33614;-58
2022/05/21 01:50:30;;;;;;;7.68;5.70;;;;;;;17.60;72.94;99807.72;4446953;32;33773;-58
2022/05/21 01:52:58;;;;;;;6.90;5.12;;;;;;;17.58;72.70;99815.53;4445858;32;34497;-58
2022/05/21 01:55:26;;;;;;;7.62;5.78;;;;;;;17.78;71.72;99823.72;4447843;32;33773;-58
2022/05/21 01:57:53;;;;;;;7.35;5.20;;;;;;;18.09;70.12;99845.19;4446060;32;33635;-58
2022/05/21 02:00:21;;;;;;;7.55;4.90;;;;;;;17.39;73.44;99885.03;4449402;32;33794;-58
2022/05/21 02:02:50;;;;;;;10.48;5.90;;;;;;;18.20;71.22;99931.87;4456362;26;33698;-84
2022/05/21 02:05:18;;;;;;;9.05;6.30;;;;;;;17.44;74.65;99933.16;4431201;32;33814;-85
2022/05/21 02:07:45;;;;;;;7.45;6.00;;;;;;;18.13;72.90;99909.91;4437173;32;33640;-84
2022/05/21 02:10:13;;;;;;;10.27;6.20;;;;;;;18.72;70.05;99918.66;4433840;32;33927;-85
2022/05/21 02:12:41;;;;;;;8.30;6.53;;;;;;;17.67;74.37;99951.00;4435341;32;34097;-84
2022/05/21 02:15:09;;;;;;;12.75;7.37;;;;;;;17.69;75.43;99951.91;4430457;32;34180;-83
2022/05/21 02:17:37;;;;;;;11.88;7.20;;;;;;;17.61;77.35;99956.13;4436457;32;34446;-85
2022/05/21 02:20:05;;;;;;;12.48;7.37;;;;;;;18.01;75.19;99962.13;4437030;32;33767;-83
2022/05/21 02:22:32;;;;;;;10.30;7.18;;;;;;;18.21;75.93;99959.84;4431148;32;34392;-86
2022/05/21 02:25:01;;;;;;;10.35;7.00;;;;;;;18.52;74.32;99952.47;4438315;32;34646;-85
2022/05/21 02:27:28;;;;;;;8.45;6.47;;;;;;;19.08;72.38;99941.00;4430716;32;34265;-84
2022/05/21 02:29:56;;;;;;;12.05;7.57;;;;;;;19.22;71.55;99945.56;4437435;32;34227;-86
2022/05/21 02:32:23;;;;;;;11.07;7.20;;;;;;;19.14;71.96;99943.69;4431965;32;34627;-85
2022/05/21 02:34:51;;;;;;;11.88;7.22;;;;;;;19.15;71.94;99948.97;4438459;32;34210;-85
2022/05/21 02:40:05;;;;;;;9.57;7.18;;;;;;;18.99;73.35;99949.66;4417983;32;33312;-86
2022/05/21 02:42:48;;;;;;;9.90;6.93;;;;;;;18.87;73.03;99955.59;4437241;32;34164;-86
2022/05/21 02:45:20;;;;;;;10.38;6.12;;;;;;;19.18;71.86;99953.38;4436897;32;34290;-85
2022/05/21 02:47:47;;;;;;;10.77;6.10;;;;;;;20.16;67.92;99953.53;4432210;32;33722;-86
2022/05/21 02:50:18;;;;;;;10.65;5.35;;;;;;;19.88;67.67;99955.06;4436568;32;34669;-86
2022/05/21 02:52:46;;;;;;;11.07;5.12;;;;;;;20.23;66.21;99961.50;4431885;32;31420;-85
2022/05/21 02:55:15;;;;;;;8.85;5.22;;;;;;;20.31;66.32;99947.53;4436209;32;34022;-85
2022/05/21 02:57:44;;;;;;;8.98;5.37;;;;;;;20.48;65.79;99951.16;4430518;32;34296;-86
2022/05/21 03:00:22;;;;;;;10.50;6.18;;;;;;;20.59;65.58;99949.53;4435397;32;33366;-86
2022/05/21 03:02:50;;;;;;;7.43;5.45;;;;;;;20.56;65.94;99980.16;4431110;32;32989;-86
2022/05/21 03:05:18;;;;;;;7.97;5.57;;;;;;;20.57;66.11;99974.91;4426113;32;34063;-86
2022/05/21 03:07:48;;;;;;;8.35;6.28;;;;;;;20.51;66.57;99971.34;4426112;32;33277;-85
2022/05/21 03:10:22;;;;;;;8.38;5.50;;;;;;;19.92;69.32;99964.75;4429774;32;33844;-84
2022/05/21 03:12:55;;;;;;;6.87;4.35;;;;;;;20.31;68.19;99942.28;4427341;32;33419;-86
2022/05/21 03:15:27;;;;;;;9.32;5.35;;;;;;;20.18;67.94;99930.75;4432117;32;34489;-86
2022/05/21 03:17:54;;;;;;;10.27;4.75;;;;;;;20.18;68.42;99931.63;4429011;32;33301;-85
2022/05/21 03:20:22;;;;;;;7.10;4.65;;;;;;;20.31;67.87;99929.12;4434373;32;33936;-85
2022/05/21 03:22:50;;;;;;;8.82;3.50;;;;;;;19.97;68.65;99931.47;4434142;32;34342;-85
2022/05/21 03:25:18;;;;;;;5.82;3.00;;;;;;;20.10;67.58;99933.34;4432765;32;34625;-86
2022/05/21 03:27:46;;;;;;;5.47;2.90;;;;;;;20.06;67.45;99942.06;4415106;32;32905;-86
2022/05/21 03:30:17;;;;;;;6.53;2.60;;;;;;;20.67;64.97;99943.41;4434272;32;34545;-85
2022/05/21 03:32:45;;;;;;;6.65;2.83;;;;;;;20.52;65.74;99931.03;4437154;32;33534;-86
2022/05/21 03:35:16;;;;;;;8.68;3.08;;;;;;;20.76;64.77;99922.41;4433717;32;33765;-86
2022/05/21 03:37:45;;;;;;;5.47;2.47;;;;;;;20.83;64.65;99910.16;4434505;32;33488;-86
2022/05/21 03:40:16;;;;;;;5.55;2.75;;;;;;;21.13;63.47;99925.19;4432312;32;34199;-85
2022/05/21 03:42:45;;;;;;;6.93;2.53;;;;;;;20.37;65.85;99939.69;4436359;32;33849;-85
2022/05/21 03:45:14;;;;;;;4.65;2.65;;;;;;;21.12;64.08;99918.19;4435662;32;33831;-85
2022/05/21 03:47:43;;;;;;;5.57;2.22;;;;;;;20.57;66.34;99890.72;4434323;32;34418;-85
2022/05/21 03:50:14;;;;;;;4.70;2.33;;;;;;;20.85;64.95;99871.56;4432137;32;34446;-85
2022/05/21 03:52:41;;;;;;;6.35;2.53;;;;;;;21.05;64.61;99869.00;4429512;32;33496;-85
2022/05/21 03:55:09;;;;;;;6.93;2.58;;;;;;;21.12;64.56;99863.75;4435429;32;34046;-85
2022/05/21 03:57:38;;;;;;;4.43;2.35;;;;;;;20.69;66.80;99833.78;4426864;32;34506;-85
2022/05/21 04:00:08;;;;;;;7.05;2.30;;;;;;;21.31;63.30;99824.28;4434949;32;34195;-84
2022/05/21 04:02:39;;;;;;;6.93;2.30;;;;;;;21.62;61.09;99805.91;4434515;32;34491;-85
2022/05/21 04:05:08;;;;;;;3.75;1.92;;;;;;;21.41;61.64;99800.56;4434169;32;34155;-85
2022/05/21 04:07:37;;;;;;;5.53;1.80;;;;;;;21.53;60.72;99810.25;4432510;32;33208;-85
2022/05/21 04:10:05;;;;;;;5.53;2.10;;;;;;;20.79;62.11;99818.00;4435234;32;33658;-85
2022/05/21 04:12:33;;;;;;;3.33;1.80;;;;;;;20.69;62.56;99817.97;4428730;32;33718;-85
2022/05/21 04:15:01;;;;;;;4.60;1.92;;;;;;;21.07;61.41;99819.84;4434308;32;34716;-85
2022/05/21 04:17:29;;;;;;;6.75;2.10;;;;;;;20.58;63.07;99810.87;4432241;32;33651;-85
2022/05/21 04:19:56;;;;;;;5.70;2.00;;;;;;;20.62;63.00;99807.41;4430710;32;33926;-85
2022/05/21 04:22:24;;;;;;;5.28;2.00;;;;;;;20.59;62.71;99796.88;4436988;32;34422;-85
2022/05/21 04:24:51;;;;;;;5.78;1.77;;;;;;;20.77;62.29;99789.94;4433678;32;33932;-84
2022/05/21 04:27:20;;;;;;;5.97;1.83;;;;;;;20.96;61.59;99781.19;4431051;32;34348;-84
2022/05/21 04:29:47;;;;;;;5.07;1.70;;;;;;;21.21;60.72;99800.56;4437283;32;34346;-84
2022/05/21 04:32:15;;;;;;;5.37;1.67;;;;;;;21.32;61.06;99792.66;4429667;32;32086;-84
2022/05/21 04:34:42;;;;;;;3.80;1.80;;;;;;;21.34;60.67;99812.00;4425318;32;33216;-84
2022/05/21 04:37:10;;;;;;;5.45;1.83;;;;;;;20.60;64.37;99818.81;4433525;32;34326;-84
2022/05/21 04:39:37;;;;;;;5.45;2.10;;;;;;;20.48;66.15;99832.75;4434952;32;33703;-84
2022/05/21 04:42:05;;;;;;;3.50;1.85;;;;;;;20.78;64.89;99857.47;4431524;32;33768;-84
2022/05/21 04:44:35;;;;;;;4.57;1.80;;;;;;;20.51;64.51;99866.97;4432475;32;34864;-85
2022/05/21 04:47:03;;;;;;;3.47;1.62;;;;;;;21.70;61.88;99888.50;4436502;32;34359;-84
2022/05/21 04:49:31;;;;;;;4.12;1.70;;;;;;;22.06;60.11;99899.91;4428134;32;33606;-85
2022/05/21 04:52:01;;;;;;;4.62;1.90;;;;;;;22.39;58.00;99899.06;4430836;32;33952;-85
2022/05/21 04:54:30;;;;;;;5.53;1.75;;;;;;;22.29;59.37;99892.00;4435387;32;34198;-85
2022/05/21 04:56:57;;;;;;;3.67;1.75;;;;;;;22.48;58.18;99909.56;4414639;32;33401;-85
2022/05/21 04:59:25;;;;;;;4.95;2.33;;;;;;;21.30;63.29;99917.37;4429126;32;33877;-85
2022/05/21 05:01:52;;;;;;;3.85;1.85;;;;;;;20.66;65.75;99912.72;4431573;32;34660;-85
2022/05/21 05:04:39;;;;;;;6.53;2.15;;;;;;;21.68;63.40;99899.03;4436333;32;34848;-85
2022/05/21 05:07:08;;;;;;;5.62;2.05;;;;;;;21.35;63.65;99899.81;4423307;32;33019;-85
2022/05/21 05:09:41;;;;;;;5.75;2.40;;;;;;;21.62;63.29;99920.13;4424641;32;33496;-85
2022/05/21 05:12:09;;;;;;;4.75;2.00;;;;;;;21.62;63.04;99920.13;4429854;32;33949;-85
2022/05/21 05:14:38;;;;;;;5.72;2.40;;;;;;;21.13;65.24;99919.94;4429740;32;34407;-85
2022/05/21 05:17:06;;;;;;;5.12;1.95;;;;;;;21.24;65.49;99917.34;4429403;32;33353;-85
2022/05/21 05:19:34;;;;;;;5.22;2.00;;;;;;;21.41;64.44;99919.16;4433230;32;33646;-86
2022/05/21 05:22:02;;;;;;;5.30;2.10;;;;;;;21.28;64.57;99934.91;4434491;32;33881;-85
2022/05/21 05:24:29;;;;;;;5.70;2.22;;;;;;;21.08;66.26;99932.22;4431912;32;33926;-85
2022/05/21 05:26:57;;;;;;;5.37;2.42;;;;;;;20.53;69.33;99936.31;4437397;32;33313;-85
2022/05/21 05:29:24;;;;;;;6.15;2.45;;;;;;;20.72;68.63;99949.59;4432268;32;34019;-86
2022/05/21 05:31:53;;;;;;;6.15;2.65;;;;;;;20.65;69.91;99958.31;4424593;32;34081;-86
2022/05/21 05:34:20;;;;;;;4.72;2.35;;;;;;;20.76;69.34;99959.25;4427616;32;33533;-86
2022/05/21 05:36:48;;;;;;;5.30;2.90;;;;;;;20.79;68.85;99957.53;4413489;32;32386;-85
2022/05/21 05:39:16;;;;;;;7.20;2.20;;;;;;;20.88;67.92;99956.72;4428773;32;34647;-85
2022/05/21 05:41:43;;;;;;;9.00;2.12;;;;;;;20.84;67.50;99960.19;4428499;32;34022;-86
2022/05/21 05:44:11;;;;;;;7.20;2.03;;;;;;;20.49;68.63;99957.31;4419597;32;32840;-86
2022/05/21 05:46:38;;;;;;;5.40;1.98;;;;;;;20.66;68.01;99949.56;4429031;32;32909;-86
2022/05/21 05:49:06;;;;;;;4.70;1.80;;;;;;;20.76;67.77;99954.00;4434502;32;33762;-86
2022/05/21 05:51:34;;;;;;;7.30;2.20;;;;;;;20.50;69.18;99930.13;4431512;32;33487;-86
2022/05/21 05:54:02;;;;;;;4.87;2.10;;;;;;;20.70;69.38;99946.06;4431445;32;34360;-86
2022/05/21 05:56:35;;;;;;;4.62;1.90;;;;;;;20.88;68.93;99935.66;4428428;32;33505;-87
2022/05/21 06:01:49;;;;;;;5.80;2.28;;;;;;;20.58;69.47;99937.19;4426717;32;34047;-87
2022/05/21 06:04:16;;;;;;;6.15;2.00;;;;;;;20.42;69.98;99953.75;4434373;32;34201;-86
2022/05/21 06:06:44;;;;;;;5.00;1.77;;;;;;;20.28;70.12;99942.22;4434852;32;33595;-86
2022/05/21 06:09:12;;;;;;;5.20;1.85;;;;;;;20.20;70.58;99950.97;4430759;32;34648;-87
2022/05/21 06:11:41;;;;;;;4.03;1.50;;;;;;;20.54;68.76;99938.03;4414013;32;32776;-85
2022/05/21 06:14:09;;;;;;;6.18;1.65;;;;;;;20.45;68.13;99945.88;4435506;32;33582;-87
2022/05/21 06:16:36;;;;;;;3.80;1.30;;;;;;;20.36;68.67;99961.63;4419732;32;33830;-86
2022/05/21 06:19:04;;;;;;;4.53;1.80;;;;;;;20.01;70.60;99972.69;4408709;32;34624;-86
2022/05/21 06:21:32;;;;;;;3.85;2.03;;;;;;;19.95;72.75;99985.78;4420041;32;33937;-85
2022/05/21 06:23:59;;;;;;;4.00;1.95;;;;;;;19.21;77.48;99998.06;4426909;32;33857;-85
2022/05/21 06:26:27;;;;;;;4.28;1.80;;;;;;;18.94;80.21;99991.59;4415518;32;33579;-84
2022/05/21 06:28:55;;;;;;;6.65;1.70;;;;;;;18.93;81.16;99995.09;4431969;32;34436;-85
2022/05/21 06:31:22;;;;;;;7.68;1.98;;;;;;;18.67;82.41;99997.28;4437532;32;33323;-84
2022/05/21 06:33:50;;;;;;;6.12;2.20;;;;;;;18.34;85.22;99997.66;4434532;32;34924;-84
2022/05/21 06:36:18;;;;;;;6.87;1.85;;;;;;;18.31;86.08;99971.34;4413782;32;34320;-85
2022/05/21 06:38:45;;;;;;;5.35;1.52;;;;;;;18.15;88.59;99980.72;4438213;32;34595;-84
2022/05/21 06:41:13;;;;;;;5.57;2.12;;;;;;;18.25;87.65;99967.81;4435152;32;33668;-86
2022/05/21 06:43:47;;;;;;;7.35;2.25;;;;;;;18.37;87.12;99959.25;4425807;32;34671;-85
2022/05/21 06:46:15;;;;;;;5.72;1.98;;;;;;;18.18;88.74;99971.16;4418913;32;33623;-86
2022/05/21 06:48:43;;;;;;;5.87;2.10;;;;;;;18.34;87.46;99951.31;4433745;32;33790;-86
2022/05/21 06:51:10;;;;;;;6.95;2.25;;;;;;;18.91;83.79;99948.66;4433063;32;33742;-86
2022/05/21 06:53:38;;;;;;;5.47;2.47;;;;;;;18.93;84.82;99947.84;4437679;32;33865;-85
2022/05/21 06:56:08;;;;;;;7.47;2.42;;;;;;;18.91;84.10;99931.19;4439538;32;33548;-85
2022/05/21 06:58:36;;;;;;;7.05;2.55;;;;;;;18.58;85.97;99935.09;4411990;32;34315;-86
2022/05/21 07:01:05;;;;;;;7.80;2.50;;;;;;;18.96;84.28;99916.34;4437593;32;33775;-86
2022/05/21 07:03:33;;;;;;;5.07;2.47;;;;;;;18.90;85.05;99918.91;4420713;32;34654;-87
2022/05/21 07:08:49;;;;;;;6.15;2.53;;;;;;;19.08;85.42;99920.88;4421935;32;34038;-86
2022/05/21 07:11:17;;;;;;;7.53;2.67;;;;;;;19.03;84.89;99910.34;4432950;32;34668;-86
2022/05/21 07:13:45;;;;;;;7.93;2.70;;;;;;;20.08;79.61;99914.03;4431034;32;32986;-85
2022/05/21 07:16:13;;;;;;;6.45;2.17;;;;;;;20.32;78.21;99909.81;4424305;32;34414;-88
2022/05/21 07:18:40;;;;;;;7.50;3.03;;;;;;;20.76;76.15;99911.88;4421864;32;34494;-87
2022/05/21 07:21:10;;;;;;;7.97;3.12;;;;;;;20.47;77.38;99916.94;4406295;32;32515;-87
2022/05/21 07:23:38;;;;;;;6.05;2.62;;;;;;;20.31;78.68;99916.84;4406754;32;33130;-86
2022/05/21 07:26:07;;;;;;;5.90;3.20;;;;;;;19.77;82.11;99923.41;4421619;32;32055;-86
2022/05/21 07:28:35;;;;;;;8.10;3.20;;;;;;;19.74;81.83;99924.28;4437538;32;33950;-86
2022/05/21 07:31:03;;;;;;;10.88;3.62;;;;;;;19.52;83.69;99917.00;4436573;32;32499;-86
2022/05/21 07:33:30;;;;;;;7.20;2.92;;;;;;;19.84;82.55;99915.59;4436119;32;33875;-87
2022/05/21 07:35:58;;;;;;;6.15;2.90;;;;;;;20.03;80.22;99926.28;4421564;32;33958;-87
2022/05/21 07:38:25;;;;;;;5.80;2.60;;;;;;;20.76;76.86;99914.50;4422190;32;34645;-86
2022/05/21 07:40:53;;;;;;;5.03;2.55;;;;;;;20.90;75.85;99907.56;4437351;32;33475;-86
2022/05/21 07:43:30;;;;;;;7.45;2.65;;;;;;;21.00;74.76;99919.91;4420946;32;34178;-86
2022/05/21 07:45:59;;;;;;;5.43;2.45;;;;;;;20.60;74.77;99929.34;4422230;32;33178;-87
2022/05/21 07:48:28;;;;;;;5.82;2.55;;;;;;;21.55;71.50;99927.13;4436034;32;34338;-86
2022/05/21 07:51:00;;;;;;;5.07;2.53;;;;;;;21.68;70.20;99929.78;4410379;32;32217;-87
2022/05/21 07:53:35;;;;;;;5.05;2.30;;;;;;;21.53;70.88;99941.19;4434997;32;34221;-87
2022/05/21 07:56:03;;;;;;;6.73;2.33;;;;;;;21.39;71.03;99955.16;4421145;32;32748;-86
2022/05/21 07:58:31;;;;;;;4.30;2.30;;;;;;;21.68;72.04;99966.69;4437181;32;33330;-87
2022/05/21 08:00:59;;;;;;;6.28;2.35;;;;;;;21.70;70.85;99971.09;4418533;32;33486;-86
2022/05/21 08:03:33;;;;;;;6.00;2.40;;;;;;;22.47;66.21;99981.72;4434659;32;34233;-86
2022/05/21 08:06:01;;;;;;;4.78;2.30;;;;;;;21.57;67.03;99970.16;4437194;32;33573;-87
2022/05/21 08:08:29;;;;;;;4.12;2.22;;;;;;;21.44;67.47;99970.13;4436893;32;33899;-86
2022/05/21 08:10:56;;;;;;;5.82;2.42;;;;;;;21.29;68.15;99973.59;4435878;32;33472;-87
2022/05/21 08:13:24;;;;;;;6.00;2.60;;;;;;;21.40;67.83;99978.00;4419229;32;33649;-86
2022/05/21 08:15:51;;;;;;;5.10;2.42;;;;;;;21.81;67.82;99979.03;4438329;32;33679;-85
2022/05/21 08:18:19;;;;;;;4.53;2.53;;;;;;;22.01;67.37;99973.78;4438832;32;33983;-87
2022/05/21 08:20:48;;;;;;;6.87;2.60;;;;;;;21.84;66.82;99968.47;4436976;32;33807;-86
2022/05/21 08:28:49;;;;;;;8.07;3.17;;;;;;;22.67;64.30;99967.62;4421810;32;32996;-89
2022/05/21 08:31:17;;;;;;;6.22;2.42;;;;;;;22.63;61.91;99963.22;4424907;32;33811;-88
2022/05/21 08:33:45;;;;;;;7.37;3.50;;;;;;;22.56;61.82;99950.03;4412439;32;33294;-87
2022/05/21 08:36:12;;;;;;;6.43;2.85;;;;;;;22.68;61.30;99921.88;4420446;32;34362;-86
2022/05/21 08:38:46;;;;;;;9.13;3.40;;;;;;;23.03;60.98;99957.88;4424384;32;33847;-87
2022/05/21 08:41:26;;;;;;;6.57;3.28;;;;;;;22.30;63.55;99957.97;4436450;32;34339;-87
2022/05/21 08:44:02;;;;;;;12.45;3.80;;;;;;;22.20;65.53;99956.19;4418075;32;33792;-87
2022/05/21 08:46:51;;;;;;;8.88;3.50;;;;;;;22.90;63.90;99954.34;4420545;32;34187;-87
2022/05/21 08:49:33;;;;;;;5.97;3.30;;;;;;;22.88;64.97;99951.72;4436095;32;33807;-88
2022/05/21 08:52:04;;;;;;;9.20;4.05;;;;;;;22.84;63.73;99952.63;4420810;32;34215;-88
2022/05/21 08:54:43;;;;;;;7.37;3.60;;;;;;;22.77;64.27;99962.31;4416254;32;32922;-88
2022/05/21 08:57:44;;;;;;;7.15;3.20;;;;;;;22.82;62.42;99970.22;4421322;32;34014;-87
2022/05/21 09:00:23;;;;;;;9.18;3.35;;;;;;;22.25;64.63;99964.13;4408429;32;31140;-88
2022/05/21 09:02:54;;;;;;;7.72;3.20;;;;;;;22.91;62.32;99957.00;4421043;32;33262;-88
2022/05/21 09:05:23;;;;;;;6.30;3.20;;;;;;;22.76;62.54;99963.19;4421911;32;32638;-89
2022/05/21 09:08:06;;;;;;;4.85;3.10;;;;;;;23.20;61.98;99961.34;4407582;32;31926;-89
2022/05/21 09:11:01;;;;;;;6.75;3.10;;;;;;;23.38;59.14;99959.50;4420280;32;32334;-89
2022/05/21 09:13:36;;;;;;;8.30;3.60;;;;;;;23.33;58.42;99949.84;4418118;32;32549;-89
2022/05/21 09:18:50;;;;;;;6.90;3.35;;;;;;;23.81;56.73;99965.44;4411658;32;32178;-88
2022/05/21 09:21:21;;;;;;;8.25;3.20;;;;;;;24.20;53.95;99959.84;4395447;32;32284;-89
2022/05/21 09:24:03;;;;;;;7.15;3.58;;;;;;;24.39;53.39;99949.97;4417289;32;33613;-86
2022/05/21 09:26:51;;;;;;;8.10;3.40;;;;;;;24.58;54.30;99954.25;4436094;32;34227;-86
2022/05/21 09:29:28;;;;;;;6.60;2.90;;;;;;;24.76;54.99;99960.22;4408598;32;32519;-87
2022/05/21 09:31:56;;;;;;;9.77;2.25;;;;;;;25.38;52.05;99965.72;4427465;32;33937;-87
2022/05/21 09:34:33;;;;;;;6.15;3.15;;;;;;;25.28;49.12;99955.25;4422494;32;34694;-86
2022/05/21 09:37:01;;;;;;;6.37;3.03;;;;;;;25.08;51.87;99957.22;4434581;32;34443;-86
2022/05/21 09:39:31;;;;;;;6.37;3.05;;;;;;;24.72;51.48;99948.78;4411006;32;33646;-87
2022/05/21 09:42:09;;;;;;;7.65;3.40;;;;;;;25.14;50.42;99951.84;4426338;32;33495;-87
2022/05/21 09:47:31;;;;;;;3.85;2.35;;;;;;;25.23;49.30;99962.37;4413233;32;33356;-87
2022/05/21 09:50:01;;;;;;;4.53;2.40;;;;;;;24.97;47.86;99956.47;4426950;32;33713;-86
2022/05/21 09:52:30;;;;;;;7.05;2.40;;;;;;;24.76;47.25;99955.81;4435911;32;34561;-85
2022/05/21 09:54:58;;;;;;;5.80;2.37;;;;;;;25.00;48.65;99962.63;4423645;32;33908;-85
2022/05/21 09:57:37;;;;;;;4.25;2.15;;;;;;;25.33;46.34;99963.13;4406677;32;32961;-87
2022/05/21 10:00:26;;;;;;;7.18;2.10;;;;;;;25.20;45.59;99951.75;4401278;32;32805;-87
2022/05/21 10:03:02;;;;;;;4.78;2.10;;;;;;;25.42;45.82;99959.47;4419580;32;34077;-85
2022/05/21 10:05:42;;;;;;;4.72;2.22;;;;;;;25.36;46.94;99962.19;4425337;32;33847;-85
2022/05/21 10:11:07;;;;;;;5.57;1.90;;;;;;;25.38;46.13;99957.75;4436124;32;33903;-85
2022/05/21 10:13:46;;;;;;;5.95;2.00;;;;;;;25.64;44.51;99942.34;4423378;32;33810;-86
2022/05/21 10:16:53;;;;;;;5.72;2.22;;;;;;;25.43;46.46;99953.28;4412165;32;33418;-85
2022/05/21 10:19:51;;;;;;;5.35;1.90;;;;;;;26.13;45.38;99947.84;4421375;32;34271;-88
2022/05/21 10:22:28;;;;;;;5.62;1.75;;;;;;;25.45;44.90;99954.13;4437979;32;33534;-88
2022/05/21 10:25:08;;;;;;;4.85;1.87;;;;;;;25.28;41.54;99949.03;4437914;32;33772;-89
2022/05/21 10:28:10;;;;;;;4.90;2.25;;;;;;;25.06;45.42;99948.41;4424674;32;33733;-86
2022/05/21 10:30:53;;;;;;;3.78;1.80;;;;;;;25.98;43.13;99949.84;4422560;32;33755;-86
2022/05/21 10:33:37;;;;;;;7.82;2.20;;;;;;;25.35;41.87;99944.56;4423631;32;32192;-86
2022/05/21 10:36:20;;;;;;;4.15;1.87;;;;;;;25.46;42.16;99942.63;4409572;32;33521;-87
2022/05/21 10:39:10;;;;;;;4.78;1.60;;;;;;;26.15;40.51;99943.38;4435212;32;33264;-87
2022/05/21 10:41:56;;;;;;;5.10;2.10;;;;;;;26.26;38.84;99933.44;4405711;32;33917;-88
2022/05/21 10:44:36;;;;;;;4.37;1.90;;;;;;;26.46;38.44;99933.97;4438582;32;33598;-86
2022/05/21 10:47:05;;;;;;;4.65;2.12;;;;;;;25.77;41.06;99942.16;4408768;32;32461;-86
2022/05/21 10:49:38;;;;;;;3.08;1.52;;;;;;;26.52;40.13;99942.72;4436665;32;33737;-87
2022/05/21 10:52:11;;;;;;;5.22;1.35;;;;;;;26.38;37.24;99941.19;4435071;32;33985;-86
2022/05/21 10:54:54;;;;;;;3.55;1.30;;;;;;;26.74;36.63;99944.12;4436413;32;34385;-86
2022/05/21 10:57:43;;;;;;;5.07;1.48;;;;;;;26.85;34.60;99927.97;4437396;32;33768;-86
2022/05/21 11:00:18;;;;;;;3.95;1.60;;;;;;;27.17;35.16;99937.06;4433854;32;33302;-86
2022/05/21 11:03:04;;;;;;;5.82;2.35;;;;;;;26.23;37.51;99946.75;4433176;32;34852;-86
2022/05/21 11:05:41;;;;;;;3.00;1.42;;;;;;;26.64;36.75;99932.78;4439274;32;34345;-86
2022/05/21 11:08:27;;;;;;;5.03;1.60;;;;;;;26.37;38.18;99934.13;4425881;32;33875;-86
2022/05/21 11:11:04;;;;;;;4.20;1.77;;;;;;;26.47;37.94;99930.41;4435486;32;33820;-86
2022/05/21 11:13:42;;;;;;;3.35;1.30;;;;;;;26.68;36.75;99933.59;4423211;32;33809;-87
2022/05/21 11:16:22;;;;;;;4.05;1.73;;;;;;;25.75;34.82;99928.94;4422778;32;34154;-87
2022/05/21 11:19:06;;;;;;;5.07;1.77;;;;;;;25.70;37.25;99936.09;4419227;32;32196;-86
2022/05/21 11:21:37;;;;;;;4.65;1.50;;;;;;;25.68;37.82;99929.94;4422308;32;33810;-86
2022/05/21 11:24:12;;;;;;;6.60;2.33;;;;;;;26.08;36.95;99927.56;4421013;32;33945;-86
2022/05/21 11:26:59;;;;;;;5.22;2.00;;;;;;;26.08;37.78;99929.34;4410611;32;30938;-86
2022/05/21 11:29:42;;;;;;;5.62;1.70;;;;;;;26.23;38.45;99920.22;4423960;32;33278;-87
2022/05/21 11:37:59;;;;;;;4.40;1.80;;;;;;;26.41;36.18;99909.28;4430079;32;33561;-85
2022/05/21 11:43:53;;;;;;;5.47;1.62;;;;;;;26.01;36.05;99917.94;4428898;32;34153;-85
2022/05/21 11:46:33;;;;;;;5.47;1.70;;;;;;;26.77;35.04;99909.53;4407491;32;33290;-87
2022/05/21 11:49:32;;;;;;;4.07;2.00;;;;;;;26.42;34.93;99899.50;4437854;32;33719;-84
2022/05/21 11:52:26;;;;;;;5.72;2.20;;;;;;;26.22;36.51;99907.84;4437046;32;33830;-85
2022/05/21 11:54:53;;;;;;;5.70;2.22;;;;;;;26.49;36.33;99915.31;4421024;32;33859;-88
2022/05/21 11:57:33;;;;;;;3.37;2.12;;;;;;;26.70;37.45;99899.03;4434910;32;34052;-85
2022/05/21 12:00:06;;;;;;;4.57;2.17;;;;;;;26.60;38.13;99914.28;4432710;32;34213;-86
2022/05/21 12:02:58;;;;;;;5.50;2.17;;;;;;;27.33;37.88;99911.03;4438093;32;34480;-84
2022/05/21 12:05:37;;;;;;;5.18;2.25;;;;;;;26.40;37.86;99907.50;4438245;32;34573;-85
2022/05/21 12:08:14;;;;;;;6.28;2.00;;;;;;;26.08;38.25;99911.63;4435622;32;34339;-86
2022/05/21 12:11:07;;;;;;;5.62;2.00;;;;;;;26.04;37.58;99904.63;4438803;32;33586;-84
2022/05/21 12:13:39;;;;;;;4.65;2.30;;;;;;;26.48;38.00;99910.91;4403251;32;33882;-85
2022/05/21 12:16:14;;;;;;;5.15;2.25;;;;;;;26.79;37.48;99904.16;4425079;32;33697;-86
2022/05/21 12:18:48;;;;;;;;;;;;;;;26.03;38.66;99907.28;4436998;32;34865;-86
2022/05/21 12:21:30;;;;;;;7.07;2.27;;;;;;;26.17;39.14;99907.06;4423123;32;33374;-87
2022/05/21 12:24:05;;;;;;;6.57;2.05;;;;;;;27.17;37.31;99910.47;4421242;32;34406;-85
2022/05/21 12:26:38;;;;;;;3.70;2.20;;;;;;;26.62;38.54;99909.81;4427436;32;34012;-84
2022/05/21 12:29:23;;;;;;;5.10;2.33;;;;;;;26.11;39.06;99915.13;4420358;32;34053;-85